Startpagina
METAR-TAF:

METAR-TAF

Vliegvelden :

Tripoli, Libië

Luchthaven Mitiga Internationaal

breedte: 32-54N, lengte: 13-17E, hoogte: 11 m

Actueel weer

Dit bericht is 52 minuten geleden gemaakt, om 15:50 UTC
Wind 10 kt uit het oosten
Temperatuur 21°C
Vochtigheid 69%
Druk 1013 hPa
Zicht: 6000 m

METAR: HLLM 271550Z 08010KT 6000 NSC 21/15 Q1013

Tijdstip: 18:42 (16:42 UTC)

Verwachting

Dit bericht is 5 uur en het 42 minuten geleden gemaakt, om 11:00 UTC
Verwachting geldig van 27 om 12 UTC tot 28 om 12 UTC
Wind 10 kt uit het noordnoordoosten
Zicht: 5000 m
Heiigheid
Wijzigt naar
van 27 om 18 UTC tot 27 om 20 UTC
Wind 10 kt uit het oosten
Zicht: 8000 m
Wijzigt naar
van 28 om 00 UTC tot 28 om 02 UTC
Wind 2 kt uit variabele richting
Wijzigt naar
van 28 om 10 UTC tot 28 om 12 UTC
Wind 12 kt uit het oostnoordoosten

TAF: HLLM 271100Z 2712/2812 03010KT 5000 HZ NSC BECMG 2718/2720 09010KT 8000 NSW BECMG 2800/2802 VRB02KT BECMG 2810/2812 06012KT

Waarnemingen en weersverwachtingen van meer dan 4000 vliegvelden (METAR en TAF).

De beschikbare stations zijn de gele en rode punten op de kaart.

Ga met uw muis naar het station om de naam te zien.

Klik dan om waarnemingen en weersverwachtingen te zien.

kaart wijzigen: klik op de groene knoppen met een zwart kruis om in te zoomen, op de groene knop met een streepje om uit te zoomen of op de groene pijlen voor aangrenzende kaarten.


METAR-TAF: